createdAt,value
2023-01-10T00:04:00.079Z,3.54
2023-01-10T00:09:06.411Z,3.40
2023-01-10T00:14:13.363Z,2.86
2023-01-10T00:19:19.647Z,2.65
2023-01-10T00:24:25.771Z,2.62
2023-01-10T00:29:31.916Z,2.59
2023-01-10T00:34:38.304Z,2.84
2023-01-10T00:39:44.623Z,2.62
2023-01-10T00:44:50.693Z,2.53
2023-01-10T00:49:56.933Z,2.57
2023-01-10T00:55:02.977Z,2.41
2023-01-10T01:00:09.165Z,2.51
2023-01-10T01:05:15.245Z,2.46
2023-01-10T01:10:21.546Z,2.56
2023-01-10T01:15:27.704Z,2.67
2023-01-10T01:20:33.895Z,2.34
2023-01-10T01:25:39.962Z,2.39
2023-01-10T01:30:46.242Z,2.36
2023-01-10T01:35:52.308Z,2.23
2023-01-10T01:40:58.541Z,2.40
2023-01-10T01:46:04.987Z,2.27
2023-01-10T01:51:11.856Z,2.25
2023-01-10T01:56:17.955Z,2.00
2023-01-10T02:01:24.398Z,1.91
2023-01-10T02:06:30.435Z,2.26
2023-01-10T02:11:36.609Z,1.96
2023-01-10T02:16:42.657Z,2.12
2023-01-10T02:21:48.885Z,2.17
2023-01-10T02:26:54.948Z,2.31
2023-01-10T02:32:01.243Z,2.12
2023-01-10T02:37:07.428Z,2.26
2023-01-10T02:42:13.585Z,2.30
2023-01-10T02:47:19.683Z,2.05
2023-01-10T02:52:25.874Z,2.00
2023-01-10T02:57:31.928Z,2.25
2023-01-10T03:02:38.156Z,2.13
2023-01-10T03:07:44.240Z,2.09
2023-01-10T03:12:50.406Z,2.18
2023-01-10T03:17:56.561Z,1.98
2023-01-10T03:23:02.807Z,2.03
2023-01-10T03:28:08.894Z,2.21
2023-01-10T03:33:15.836Z,2.45
2023-01-10T03:38:22.036Z,2.18
2023-01-10T03:43:28.228Z,2.22
2023-01-10T03:48:34.677Z,2.18
2023-01-10T03:53:40.863Z,2.23
2023-01-10T03:58:46.955Z,2.14
2023-01-10T04:03:53.183Z,2.25
2023-01-10T04:08:59.362Z,2.45
2023-01-10T04:14:06.068Z,2.47
2023-01-10T04:19:12.145Z,2.47
2023-01-10T04:24:18.598Z,2.44
2023-01-10T04:29:24.756Z,2.72
2023-01-10T04:34:32.010Z,2.74
2023-01-10T04:39:38.089Z,2.61
2023-01-10T04:44:44.282Z,2.61
2023-01-10T04:49:50.367Z,3.05
2023-01-10T04:54:56.626Z,2.73
2023-01-10T05:00:02.735Z,2.95
2023-01-10T05:05:08.944Z,2.68
2023-01-10T05:10:15.033Z,2.88
2023-01-10T05:15:21.245Z,2.59
2023-01-10T05:20:27.400Z,2.51
2023-01-10T05:25:33.642Z,3.03
2023-01-10T05:30:39.877Z,2.59
2023-01-10T05:35:46.183Z,2.85
2023-01-10T05:40:52.252Z,2.62
2023-01-10T05:45:58.465Z,3.20
2023-01-10T05:51:04.598Z,3.17
2023-01-10T05:56:10.807Z,2.70
2023-01-10T06:01:16.961Z,2.58
2023-01-10T06:06:23.161Z,2.71
2023-01-10T06:11:29.313Z,2.90
2023-01-10T06:16:35.657Z,2.80
2023-01-10T06:21:41.820Z,2.63
2023-01-10T06:26:48.022Z,3.24
2023-01-10T06:31:54.108Z,2.61
2023-01-10T06:37:00.278Z,2.98
2023-01-10T06:42:06.384Z,2.85
2023-01-10T06:47:12.808Z,2.57
2023-01-10T06:52:18.905Z,3.26
2023-01-10T06:57:25.160Z,2.99
2023-01-10T07:02:31.255Z,2.85
2023-01-10T07:07:37.480Z,2.96
2023-01-10T07:12:43.630Z,3.03
2023-01-10T07:17:49.797Z,2.80
2023-01-10T07:22:55.926Z,2.85
2023-01-10T07:28:02.165Z,3.13
2023-01-10T07:33:08.273Z,3.11
2023-01-10T07:38:14.551Z,3.13
2023-01-10T07:43:20.624Z,2.89
2023-01-10T07:48:26.840Z,3.39
2023-01-10T07:53:32.898Z,3.23
2023-01-10T07:58:39.052Z,3.22
2023-01-10T08:03:45.218Z,3.45
2023-01-10T08:08:51.437Z,3.49
2023-01-10T08:13:57.513Z,3.46
2023-01-10T08:19:03.755Z,3.66
2023-01-10T08:24:09.818Z,4.13
2023-01-10T08:29:15.987Z,3.75
2023-01-10T08:34:22.057Z,3.83
2023-01-10T08:39:28.406Z,3.96
2023-01-10T08:44:34.492Z,4.06
2023-01-10T08:50:14.141Z,4.43
2023-01-10T08:55:20.218Z,4.23
2023-01-10T09:00:27.862Z,3.94
2023-01-10T09:05:34.050Z,4.01
2023-01-10T09:10:40.270Z,4.27
2023-01-10T09:15:46.399Z,4.61
2023-01-10T09:20:52.622Z,4.14
2023-01-10T09:25:58.702Z,3.81
2023-01-10T09:31:04.885Z,3.95
2023-01-10T09:36:11.048Z,4.02
2023-01-10T09:41:17.624Z,3.98
2023-01-10T09:46:23.716Z,4.61
2023-01-10T09:51:30.876Z,4.26
2023-01-10T09:56:37.017Z,4.30
2023-01-10T10:01:43.251Z,4.34
2023-01-10T10:06:49.565Z,4.83
2023-01-10T10:11:56.038Z,4.68
2023-01-10T10:17:02.116Z,5.05
2023-01-10T10:22:08.323Z,4.56
2023-01-10T10:27:14.484Z,4.61
2023-01-10T10:32:20.671Z,4.89
2023-01-10T10:37:26.742Z,5.27
2023-01-10T10:42:32.904Z,5.33
2023-01-10T10:47:38.992Z,5.69
2023-01-10T10:52:45.140Z,6.34
2023-01-10T10:57:59.809Z,5.07
2023-01-10T11:02:56.959Z,5.11
2023-01-10T11:08:03.029Z,4.85
2023-01-10T11:13:09.217Z,4.66
2023-01-10T11:18:15.285Z,5.06
2023-01-10T11:23:21.723Z,4.60
2023-01-10T11:28:27.879Z,4.21
2023-01-10T11:33:34.032Z,4.23
2023-01-10T11:38:40.129Z,4.34
2023-01-10T11:43:46.308Z,4.49
2023-01-10T11:49:06.187Z,4.39
2023-01-10T11:53:58.182Z,4.47
2023-01-10T11:59:04.273Z,4.32
2023-01-10T12:04:10.468Z,5.41
2023-01-10T12:09:16.531Z,4.38
2023-01-10T12:14:22.689Z,4.76
2023-01-10T12:19:28.776Z,4.59
2023-01-10T12:24:34.967Z,4.25
2023-01-10T12:29:41.057Z,4.62
2023-01-10T12:34:47.226Z,4.35
2023-01-10T12:39:53.313Z,4.85
2023-01-10T12:44:59.576Z,4.84
2023-01-10T12:50:05.692Z,5.21
2023-01-10T12:55:11.854Z,5.40
2023-01-10T13:00:17.956Z,5.07
2023-01-10T13:05:24.121Z,5.11
2023-01-10T13:10:30.298Z,5.23
2023-01-10T13:15:37.068Z,4.99
2023-01-10T13:20:44.137Z,4.61
2023-01-10T13:25:50.274Z,4.55
2023-01-10T13:30:56.427Z,4.98
2023-01-10T13:36:02.565Z,4.37
2023-01-10T13:41:08.697Z,4.91
2023-01-10T13:46:14.962Z,4.26
2023-01-10T13:51:20.986Z,4.38
2023-01-10T13:56:27.192Z,4.52
2023-01-10T14:01:33.393Z,4.09
2023-01-10T14:06:39.515Z,4.39
2023-01-10T14:11:45.620Z,4.39
2023-01-10T14:16:51.908Z,4.62
2023-01-10T14:21:57.961Z,4.72
2023-01-10T14:27:04.255Z,4.26
2023-01-10T14:32:10.373Z,4.65
2023-01-10T14:37:16.658Z,4.59
2023-01-10T14:42:22.897Z,4.26
2023-01-10T14:47:29.145Z,4.44
2023-01-10T14:52:35.268Z,4.31
2023-01-10T14:57:41.540Z,4.48
2023-01-10T15:02:47.709Z,4.24
2023-01-10T15:07:54.141Z,4.80
2023-01-10T15:13:00.253Z,4.13
2023-01-10T15:18:06.557Z,4.50
2023-01-10T15:23:12.722Z,4.82
2023-01-10T15:28:18.934Z,4.67
2023-01-10T15:33:25.197Z,4.57
2023-01-10T15:38:31.412Z,4.38
2023-01-10T15:43:37.553Z,4.60
2023-01-10T15:48:43.805Z,4.89
2023-01-10T15:53:49.899Z,5.10
2023-01-10T15:58:56.080Z,4.98
2023-01-10T16:04:02.147Z,5.15
2023-01-10T16:09:08.366Z,5.07
2023-01-10T16:14:14.508Z,5.29
2023-01-10T16:19:20.757Z,4.92
2023-01-10T16:24:26.859Z,5.19
2023-01-10T16:29:34.104Z,4.84
2023-01-10T16:34:40.176Z,4.71
2023-01-10T16:39:46.302Z,4.45
2023-01-10T16:44:52.416Z,4.47
2023-01-10T16:49:58.625Z,4.99
2023-01-10T16:55:04.917Z,4.14
2023-01-10T17:00:10.997Z,4.16
2023-01-10T17:05:17.089Z,3.59
2023-01-10T17:10:23.367Z,4.32
2023-01-10T17:16:35.333Z,4.23
2023-01-10T17:21:41.523Z,3.89
2023-01-10T17:26:47.684Z,3.64
2023-01-10T17:31:54.212Z,3.66
2023-01-10T17:37:00.225Z,3.95
2023-01-10T17:42:06.446Z,4.00
2023-01-10T17:47:13.022Z,3.57
2023-01-10T17:52:19.346Z,3.84
2023-01-10T17:57:25.439Z,3.42
2023-01-10T18:02:32.738Z,3.74
2023-01-10T18:07:38.781Z,3.22
2023-01-10T18:12:45.153Z,3.21
2023-01-10T18:17:51.168Z,3.38
2023-01-10T18:22:57.548Z,3.38
2023-01-10T18:28:03.706Z,3.25
2023-01-10T18:33:09.931Z,3.13
2023-01-10T18:38:15.971Z,2.91
2023-01-10T18:43:22.166Z,3.02
2023-01-10T18:48:28.867Z,3.17
2023-01-10T18:53:35.162Z,2.96
2023-01-10T18:58:41.307Z,2.84
2023-01-10T19:03:47.536Z,2.63
2023-01-10T19:08:54.498Z,2.77
2023-01-10T19:14:00.763Z,3.39
2023-01-10T19:19:06.956Z,3.28
2023-01-10T19:24:13.153Z,3.14
2023-01-10T19:29:19.312Z,3.18
2023-01-10T19:34:25.489Z,2.93
2023-01-10T19:39:31.795Z,2.90
2023-01-10T19:44:38.105Z,2.71
2023-01-10T19:49:44.231Z,4.23
2023-01-10T19:54:50.594Z,2.85
2023-01-10T19:59:56.794Z,2.65
2023-01-10T20:05:03.097Z,2.64
2023-01-10T20:10:09.181Z,2.94
2023-01-10T20:15:15.395Z,3.15
2023-01-10T20:20:21.517Z,2.98
2023-01-10T20:25:27.780Z,2.64
2023-01-10T20:30:33.912Z,2.87
2023-01-10T20:35:40.122Z,3.02
2023-01-10T20:40:46.339Z,2.67
2023-01-10T20:45:52.601Z,2.80
2023-01-10T20:50:58.725Z,2.99
2023-01-10T20:56:04.932Z,3.12
2023-01-10T21:01:12.443Z,2.95
2023-01-10T21:06:16.889Z,3.15
2023-01-10T21:11:22.987Z,2.96
2023-01-10T21:16:29.307Z,2.72
2023-01-10T21:21:35.494Z,2.80
2023-01-10T21:26:41.794Z,2.65
2023-01-10T21:31:47.960Z,2.78
2023-01-10T21:36:54.101Z,3.16
2023-01-10T21:42:00.241Z,3.03
2023-01-10T21:47:06.525Z,2.78
2023-01-10T21:52:12.669Z,2.78
2023-01-10T21:57:18.845Z,2.62
2023-01-10T22:02:24.932Z,2.67
2023-01-10T22:07:31.260Z,2.70
2023-01-10T22:12:37.410Z,3.04
2023-01-10T22:17:43.867Z,3.32
2023-01-10T22:22:49.982Z,3.15
2023-01-10T22:27:56.201Z,3.23
2023-01-10T22:33:02.302Z,3.57
2023-01-10T22:38:08.540Z,3.80
2023-01-10T22:43:14.764Z,4.24
2023-01-10T22:48:20.915Z,3.91
2023-01-10T22:53:27.117Z,3.99
2023-01-10T22:58:33.253Z,4.33
2023-01-10T23:03:39.379Z,4.13
2023-01-10T23:08:45.731Z,4.15
2023-01-10T23:13:51.923Z,4.07
2023-01-10T23:18:58.149Z,4.37
2023-01-10T23:24:04.214Z,4.45
2023-01-10T23:29:10.397Z,4.47
2023-01-10T23:34:17.483Z,4.66
2023-01-10T23:39:23.905Z,4.73
2023-01-10T23:44:29.979Z,4.97
2023-01-10T23:49:36.226Z,4.88
2023-01-10T23:54:42.417Z,4.95
2023-01-10T23:59:48.714Z,5.04
